Time;durP1;ratioP1;P1;durP2;ratioP2;P2;SDS_P1;SDS_P2;PMS_P1;PMS_P2;Temp;Humidity;BMP_temperature;BMP_pressure;BME280_temperature;BME280_humidity;BME280_pressure;Samples;Min_cycle;Max_cycle;Signal;HPM_P1;HPM_P2
2022/04/08 00:00:15;;;;;;;0.60;0.60;;;;;;;6.99;75.73;99188.84;5277932;27;20027;-81
2022/04/08 00:02:45;;;;;;;0.30;0.30;;;;;;;7.12;74.70;99185.78;5268387;27;20046;-80
2022/04/08 00:05:16;;;;;;;0.30;0.30;;;;;;;7.00;75.06;99195.78;5278534;27;20126;-81
2022/04/08 00:07:46;;;;;;;1.60;1.15;;;;;;;6.87;75.73;99200.59;5257711;27;20295;-81
2022/04/08 00:10:18;;;;;;;0.30;0.30;;;;;;;6.98;74.60;99207.16;5281731;27;20137;-81
2022/04/08 00:12:48;;;;;;;0.38;0.38;;;;;;;7.05;74.81;99195.59;5262065;27;20363;-81
2022/04/08 00:15:19;;;;;;;0.30;0.30;;;;;;;7.27;73.33;99205.22;5302549;27;20308;-82
2022/04/08 00:17:49;;;;;;;0.40;0.40;;;;;;;7.20;73.38;99196.75;5308262;27;20129;-81
2022/04/08 00:20:20;;;;;;;0.60;0.60;;;;;;;7.24;72.74;99209.63;5279752;27;20031;-81
2022/04/08 00:22:53;;;;;;;0.40;0.40;;;;;;;7.01;72.55;99212.25;5275309;27;20471;-81
2022/04/08 00:25:24;;;;;;;;;;;;;;;7.09;73.00;99223.25;5285676;27;20487;-82
2022/04/08 00:27:55;;;;;;;0.30;0.30;;;;;;;7.07;72.58;99222.44;5309195;27;19919;-82
2022/04/08 00:30:25;;;;;;;0.30;0.30;;;;;;;7.15;72.45;99219.56;5266494;27;20067;-81
2022/04/08 00:33:01;;;;;;;0.30;0.30;;;;;;;7.15;72.10;99216.97;5267280;27;20088;-82
2022/04/08 00:35:32;;;;;;;0.40;0.40;;;;;;;6.99;72.51;99225.34;5280228;27;20377;-81
2022/04/08 00:38:06;;;;;;;0.50;0.50;;;;;;;7.04;72.40;99227.81;5301101;27;20047;-83
2022/04/08 00:40:37;;;;;;;0.30;0.30;;;;;;;7.25;71.40;99237.44;5279922;27;20289;-82
2022/04/08 00:43:16;;;;;;;0.30;0.30;;;;;;;7.00;71.72;99240.09;5262549;27;20023;-83
2022/04/08 00:45:46;;;;;;;0.40;0.40;;;;;;;6.89;71.76;99240.50;5285156;27;20053;-83
2022/04/08 00:48:17;;;;;;;0.30;0.30;;;;;;;7.12;71.65;99246.63;5287404;27;20018;-82
2022/04/08 00:50:48;;;;;;;0.30;0.30;;;;;;;7.07;71.23;99249.41;5262632;27;20042;-83
2022/04/08 00:53:18;;;;;;;1.30;1.15;;;;;;;7.08;71.24;99260.66;5282024;27;20498;-82
2022/04/08 00:55:49;;;;;;;0.50;0.50;;;;;;;6.83;72.43;99269.38;5282102;27;20474;-82
2022/04/08 00:58:20;;;;;;;0.30;0.30;;;;;;;6.64;72.72;99270.94;5283146;27;20126;-83
2022/04/08 01:00:51;;;;;;;0.30;0.30;;;;;;;6.61;73.19;99272.72;5263995;27;20113;-82
2022/04/08 01:03:21;;;;;;;0.50;0.50;;;;;;;6.49;73.37;99275.72;5271687;28;20167;-82
2022/04/08 01:05:52;;;;;;;0.30;0.30;;;;;;;6.60;73.34;99270.19;5275638;27;20116;-83
2022/04/08 01:08:22;;;;;;;0.50;0.50;;;;;;;6.63;73.57;99269.22;5267445;27;20059;-82
2022/04/08 01:10:54;;;;;;;0.30;0.30;;;;;;;6.66;73.19;99269.09;5302002;27;20035;-82
2022/04/08 01:13:25;;;;;;;2.92;1.10;;;;;;;6.77;72.38;99282.63;5281401;27;20035;-83
2022/04/08 01:15:55;;;;;;;7.68;1.70;;;;;;;6.68;72.77;99293.38;5286310;27;20044;-82
2022/04/08 01:18:26;;;;;;;1.83;1.67;;;;;;;6.58;72.93;99283.25;5266625;27;20031;-82
2022/04/08 01:20:56;;;;;;;0.40;0.40;;;;;;;6.79;72.27;99296.47;5288825;27;20096;-80
2022/04/08 01:23:28;;;;;;;0.40;0.40;;;;;;;6.66;73.06;99306.44;5270077;27;20031;-80
2022/04/08 01:25:58;;;;;;;0.30;0.30;;;;;;;6.57;73.29;99307.59;5278282;27;20557;-81
2022/04/08 01:28:29;;;;;;;0.40;0.40;;;;;;;6.71;72.71;99308.91;5277273;27;20043;-80
2022/04/08 01:31:02;;;;;;;1.58;1.50;;;;;;;6.54;73.36;99312.94;5295245;27;20031;-82
2022/04/08 01:33:35;;;;;;;0.30;0.30;;;;;;;6.48;74.14;99318.34;5278523;27;20110;-83
2022/04/08 01:36:06;;;;;;;0.50;0.50;;;;;;;6.76;72.83;99312.19;5260632;28;20066;-79
2022/04/08 01:38:37;;;;;;;0.50;0.50;;;;;;;6.59;73.21;99325.81;5255644;27;20110;-80
2022/04/08 01:41:10;;;;;;;0.32;0.32;;;;;;;6.58;73.23;99324.09;5260036;27;20043;-81
2022/04/08 01:43:41;;;;;;;0.45;0.45;;;;;;;6.69;72.92;99332.44;5282797;27;20027;-80
2022/04/08 01:46:12;;;;;;;0.40;0.40;;;;;;;6.71;72.81;99341.03;5250206;28;20046;-80
2022/04/08 01:48:42;;;;;;;2.70;2.05;;;;;;;6.61;73.46;99343.09;5277433;28;20054;-80
2022/04/08 01:51:12;;;;;;;0.30;0.30;;;;;;;6.68;72.83;99342.88;5257794;28;20787;-80
2022/04/08 01:53:46;;;;;;;0.30;0.30;;;;;;;6.55;73.29;99347.66;5251129;27;20352;-81
2022/04/08 01:56:16;;;;;;;0.30;0.30;;;;;;;6.71;72.76;99350.63;5275227;28;20194;-80
2022/04/08 01:58:49;;;;;;;0.30;0.30;;;;;;;6.59;73.58;99354.47;5306552;27;20058;-80
2022/04/08 02:01:20;;;;;;;0.50;0.50;;;;;;;6.59;73.42;99344.88;5280828;28;20031;-80
2022/04/08 02:03:50;;;;;;;1.05;0.95;;;;;;;6.60;73.67;99357.03;5266028;27;20367;-81
2022/04/08 02:06:22;;;;;;;0.38;0.38;;;;;;;6.69;73.30;99362.84;5278901;28;20497;-80
2022/04/08 02:08:53;;;;;;;0.52;0.52;;;;;;;6.78;72.84;99354.72;5282413;27;20027;-79
2022/04/08 02:11:24;;;;;;;0.40;0.40;;;;;;;6.88;72.26;99363.94;5291370;27;20118;-80
2022/04/08 02:13:55;;;;;;;0.73;0.73;;;;;;;6.64;73.80;99360.38;5243616;27;20442;-80
2022/04/08 02:16:25;;;;;;;0.30;0.30;;;;;;;6.64;73.80;99373.41;5265400;28;20062;-79
2022/04/08 02:18:58;;;;;;;0.40;0.40;;;;;;;6.80;73.31;99371.16;5280067;27;20054;-80
2022/04/08 02:21:30;;;;;;;1.55;1.00;;;;;;;6.73;73.80;99375.72;5257468;27;20196;-81
2022/04/08 02:24:03;;;;;;;0.57;0.57;;;;;;;6.63;74.08;99376.91;5284190;28;20027;-80
2022/04/08 02:26:33;;;;;;;0.40;0.40;;;;;;;6.54;74.76;99391.09;5273749;27;20043;-80
2022/04/08 02:29:04;;;;;;;0.50;0.50;;;;;;;6.63;74.12;99383.91;5285789;28;20039;-80
2022/04/08 02:31:35;;;;;;;0.88;0.88;;;;;;;6.66;74.04;99383.78;5283852;27;20116;-80
2022/04/08 02:34:05;;;;;;;0.60;0.60;;;;;;;6.68;74.11;99384.59;5287809;27;20490;-80
2022/04/08 02:36:36;;;;;;;0.60;0.60;;;;;;;6.78;74.21;99391.22;5310101;27;20049;-80
2022/04/08 02:39:07;;;;;;;0.50;0.50;;;;;;;6.49;74.95;99393.00;5273700;27;20327;-80
2022/04/08 02:41:38;;;;;;;0.65;0.65;;;;;;;6.73;74.26;99396.56;5283034;27;20503;-80
2022/04/08 02:44:11;;;;;;;0.60;0.57;;;;;;;6.58;74.68;99387.50;5267386;27;20114;-81
2022/04/08 02:46:41;;;;;;;0.60;0.60;;;;;;;6.57;74.54;99400.56;5263083;27;20486;-80
2022/04/08 02:49:12;;;;;;;0.30;0.30;;;;;;;6.59;74.89;99396.19;5309297;27;20063;-81
2022/04/08 02:51:42;;;;;;;0.52;0.52;;;;;;;6.59;75.00;99383.97;5268077;27;20047;-81
2022/04/08 02:54:15;;;;;;;0.75;0.73;;;;;;;6.72;74.40;99387.03;5269242;27;20051;-81
2022/04/08 02:56:45;;;;;;;0.40;0.40;;;;;;;6.64;75.01;99388.22;5273591;27;20042;-80
2022/04/08 02:59:21;;;;;;;0.30;0.30;;;;;;;6.72;74.17;99404.47;5304575;27;20041;-81
2022/04/08 03:01:51;;;;;;;0.30;0.30;;;;;;;6.66;74.43;99395.06;5279603;27;20602;-81
2022/04/08 03:04:22;;;;;;;0.30;0.30;;;;;;;6.61;74.69;99403.03;5283364;27;20047;-80
2022/04/08 03:06:54;;;;;;;0.30;0.30;;;;;;;6.60;74.15;99392.69;5265201;27;20037;-81
2022/04/08 03:09:25;;;;;;;0.30;0.30;;;;;;;6.56;74.27;99398.88;5300973;27;20035;-81
2022/04/08 03:11:55;;;;;;;0.40;0.40;;;;;;;6.51;74.78;99401.63;5285426;27;20296;-80
2022/04/08 03:14:26;;;;;;;0.40;0.40;;;;;;;6.54;74.10;99398.06;5278289;27;20043;-80
2022/04/08 03:16:56;;;;;;;1.50;1.40;;;;;;;6.50;74.31;99399.91;5287005;27;20054;-80
2022/04/08 03:19:27;;;;;;;0.57;0.57;;;;;;;6.37;75.11;99394.22;5317395;27;20061;-81
2022/04/08 03:21:57;;;;;;;1.52;1.42;;;;;;;6.41;74.24;99397.59;5281968;27;20059;-81
2022/04/08 03:24:31;;;;;;;0.40;0.40;;;;;;;6.46;74.22;99399.16;5287592;27;20055;-82
2022/04/08 03:27:01;;;;;;;0.45;0.45;;;;;;;6.69;72.66;99394.13;5287420;27;20058;-80
2022/04/08 03:29:32;;;;;;;0.60;0.60;;;;;;;6.38;73.49;99400.31;5282888;27;20046;-82
2022/04/08 03:32:02;;;;;;;0.52;0.52;;;;;;;6.45;73.62;99401.81;5269934;27;20024;-81
2022/04/08 03:34:33;;;;;;;0.30;0.30;;;;;;;6.52;72.96;99408.53;5283055;27;20379;-81
2022/04/08 03:37:05;;;;;;;0.30;0.30;;;;;;;6.56;72.91;99409.28;5278516;27;20038;-81
2022/04/08 03:39:35;;;;;;;0.30;0.30;;;;;;;6.66;72.71;99402.91;5264182;27;20546;-82
2022/04/08 03:42:06;;;;;;;0.30;0.30;;;;;;;6.51;73.11;99406.84;5304924;27;20043;-81
2022/04/08 03:44:36;;;;;;;2.65;0.85;;;;;;;6.60;72.38;99405.72;5272268;27;20047;-82
2022/04/08 03:47:07;;;;;;;0.40;0.40;;;;;;;6.59;72.32;99410.06;5309188;27;20076;-80
2022/04/08 03:49:38;;;;;;;0.40;0.40;;;;;;;6.61;72.16;99421.28;5279825;27;20448;-79
2022/04/08 03:52:09;;;;;;;0.73;0.73;;;;;;;6.66;72.42;99418.53;5281464;27;20474;-80
2022/04/08 03:54:39;;;;;;;4.55;1.35;;;;;;;6.56;72.61;99424.94;5279463;27;20046;-80
2022/04/08 03:57:10;;;;;;;0.30;0.30;;;;;;;6.58;72.64;99423.97;5267970;27;20035;-82
2022/04/08 03:59:41;;;;;;;0.57;0.57;;;;;;;6.70;72.38;99424.50;5262242;27;20067;-80
2022/04/08 04:02:12;;;;;;;0.52;0.52;;;;;;;6.80;72.25;99433.75;5278746;27;20114;-80
2022/04/08 04:04:42;;;;;;;0.30;0.30;;;;;;;6.68;72.15;99435.00;5265379;27;20054;-80
2022/04/08 04:07:13;;;;;;;0.30;0.30;;;;;;;6.60;73.15;99437.81;5281819;27;20134;-82
2022/04/08 04:09:44;;;;;;;1.05;1.05;;;;;;;6.55;73.29;99436.25;5267381;27;20458;-81
2022/04/08 04:12:14;;;;;;;0.50;0.50;;;;;;;6.62;72.96;99440.38;5297161;27;20079;-81
2022/04/08 04:14:45;;;;;;;0.88;0.88;;;;;;;6.57;73.16;99439.66;5278428;27;20586;-81
2022/04/08 04:17:15;;;;;;;0.77;0.63;;;;;;;6.66;72.36;99438.50;5285334;27;20235;-81
2022/04/08 04:19:46;;;;;;;0.68;0.68;;;;;;;6.67;72.81;99442.84;5264519;27;20035;-80
2022/04/08 04:22:17;;;;;;;0.60;0.60;;;;;;;6.55;73.24;99444.06;5263429;27;20536;-81
2022/04/08 04:24:49;;;;;;;1.13;0.88;;;;;;;6.77;71.96;99444.25;5272001;27;20107;-82
2022/04/08 04:27:20;;;;;;;1.15;1.15;;;;;;;6.40;73.98;99433.22;5300468;27;20035;-81
2022/04/08 04:29:50;;;;;;;0.52;0.52;;;;;;;6.41;73.74;99436.66;5280397;27;20031;-80
2022/04/08 04:32:21;;;;;;;0.40;0.40;;;;;;;6.54;72.69;99438.03;5296771;27;20367;-80
2022/04/08 04:34:54;;;;;;;0.77;0.77;;;;;;;6.46;73.56;99434.78;5299438;27;20610;-81
2022/04/08 04:37:25;;;;;;;0.50;0.50;;;;;;;6.43;73.18;99424.47;5281839;27;20122;-81
2022/04/08 04:39:55;;;;;;;0.80;0.80;;;;;;;6.57;73.15;99432.69;5277069;27;20130;-81
2022/04/08 04:42:27;;;;;;;0.60;0.60;;;;;;;6.47;73.55;99436.50;5260394;27;20418;-80
2022/04/08 04:44:58;;;;;;;0.35;0.35;;;;;;;6.44;73.08;99436.59;5297633;27;20126;-78
2022/04/08 04:47:28;;;;;;;1.50;1.42;;;;;;;6.27;73.75;99434.50;5276841;27;20106;-78
2022/04/08 04:49:59;;;;;;;0.65;0.65;;;;;;;6.39;73.18;99439.34;5270296;27;20092;-81
2022/04/08 04:52:29;;;;;;;0.63;0.63;;;;;;;6.23;73.63;99444.16;5275995;27;20102;-78
2022/04/08 04:55:00;;;;;;;4.47;1.67;;;;;;;6.36;73.46;99446.38;5269532;27;20027;-79
2022/04/08 04:57:31;;;;;;;0.65;0.65;;;;;;;6.40;73.11;99440.19;5262518;27;20099;-79
2022/04/08 05:00:08;;;;;;;0.68;0.68;;;;;;;6.41;73.08;99447.97;5234940;27;20507;-79
2022/04/08 05:02:38;;;;;;;1.23;1.23;;;;;;;6.23;73.85;99444.16;5279950;27;20043;-79
2022/04/08 05:05:09;;;;;;;0.30;0.30;;;;;;;6.33;72.98;99444.75;5269544;27;20043;-79
2022/04/08 05:07:41;;;;;;;0.82;0.73;;;;;;;6.33;73.22;99446.47;5277910;27;20040;-79
2022/04/08 05:10:11;;;;;;;0.85;0.85;;;;;;;6.35;73.67;99457.72;5274705;27;20039;-80
2022/04/08 05:12:42;;;;;;;0.50;0.50;;;;;;;6.25;73.76;99459.75;5277931;27;20601;-80
2022/04/08 05:15:13;;;;;;;1.25;1.17;;;;;;;6.33;73.38;99456.88;5298598;27;20080;-80
2022/04/08 05:17:45;;;;;;;0.30;0.30;;;;;;;6.30;73.44;99458.72;5309908;27;20222;-78
2022/04/08 05:20:15;;;;;;;0.40;0.40;;;;;;;6.22;73.71;99460.69;5265267;27;20114;-77
2022/04/08 05:22:46;;;;;;;0.38;0.38;;;;;;;6.37;73.59;99456.75;5280264;27;20126;-78
2022/04/08 05:25:19;;;;;;;0.50;0.50;;;;;;;6.42;72.72;99467.03;5300906;27;20038;-78
2022/04/08 05:27:51;;;;;;;0.40;0.40;;;;;;;6.36;72.63;99467.22;5268258;27;20046;-78
2022/04/08 05:30:22;;;;;;;0.63;0.63;;;;;;;6.49;72.59;99465.94;5252346;27;20366;-78
2022/04/08 05:32:54;;;;;;;1.23;1.23;;;;;;;6.49;72.45;99465.13;5297529;27;20027;-78
2022/04/08 05:35:24;;;;;;;1.70;1.58;;;;;;;6.53;72.49;99464.13;5251032;28;20114;-78
2022/04/08 05:37:57;;;;;;;2.30;1.25;;;;;;;6.54;72.30;99463.22;5280595;27;20058;-78
2022/04/08 05:40:31;;;;;;;0.75;0.75;;;;;;;6.47;72.46;99459.97;5290374;27;20032;-78
2022/04/08 05:43:01;;;;;;;0.55;0.55;;;;;;;6.55;72.63;99464.91;5276471;28;20038;-78
2022/04/08 05:45:31;;;;;;;0.40;0.40;;;;;;;6.46;72.65;99471.28;5280516;28;20031;-78
2022/04/08 05:48:07;;;;;;;0.43;0.43;;;;;;;6.54;72.10;99466.69;5280640;28;20095;-78
2022/04/08 05:50:37;;;;;;;1.25;1.25;;;;;;;6.65;72.55;99458.53;5261761;27;20462;-79
2022/04/08 05:53:08;;;;;;;0.40;0.40;;;;;;;6.60;72.38;99456.06;5269510;28;20019;-78
2022/04/08 05:55:39;;;;;;;0.30;0.30;;;;;;;6.62;72.10;99461.22;5271904;27;20073;-78
2022/04/08 05:58:09;;;;;;;0.60;0.60;;;;;;;6.69;72.51;99461.88;5261180;28;20418;-78
2022/04/08 06:00:40;;;;;;;0.90;0.70;;;;;;;6.71;71.89;99447.91;5275854;28;20122;-78
2022/04/08 06:03:13;;;;;;;10.90;3.78;;;;;;;6.75;71.68;99452.13;5260389;28;20058;-78
2022/04/08 06:05:53;;;;;;;0.50;0.50;;;;;;;6.66;72.94;99448.94;5256449;27;20043;-78
2022/04/08 06:08:23;;;;;;;2.63;1.48;;;;;;;6.84;72.49;99450.97;5270797;27;20027;-78
2022/04/08 06:10:54;;;;;;;1.60;1.50;;;;;;;6.63;72.82;99442.06;5279024;27;20042;-78
2022/04/08 06:13:26;;;;;;;0.40;0.40;;;;;;;6.47;73.08;99446.94;5278058;28;20114;-78
2022/04/08 06:15:56;;;;;;;0.43;0.43;;;;;;;6.55;72.54;99452.75;5300102;27;20578;-78
2022/04/08 06:18:27;;;;;;;0.80;0.80;;;;;;;6.69;72.42;99448.84;5259859;27;20027;-78
2022/04/08 06:20:57;;;;;;;0.47;0.47;;;;;;;6.59;72.21;99441.31;5246956;27;20458;-78
2022/04/08 06:23:31;;;;;;;1.35;1.35;;;;;;;6.39;73.40;99439.34;5280580;27;20498;-78
2022/04/08 06:26:05;;;;;;;4.28;2.28;;;;;;;6.53;73.09;99440.69;5296742;27;20040;-77
2022/04/08 06:28:40;;;;;;;0.30;0.30;;;;;;;6.64;72.56;99445.56;5280770;27;20027;-78
2022/04/08 06:31:13;;;;;;;0.77;0.77;;;;;;;6.29;73.87;99453.53;5278923;27;20035;-78
2022/04/08 06:33:44;;;;;;;0.55;0.55;;;;;;;6.35;73.72;99447.28;5261579;27;20428;-78
2022/04/08 06:36:14;;;;;;;3.05;1.75;;;;;;;6.13;74.06;99451.38;5266422;27;20043;-79
2022/04/08 06:38:45;;;;;;;0.38;0.38;;;;;;;6.27;74.14;99450.97;5302643;27;20106;-78
2022/04/08 06:41:15;;;;;;;1.95;1.65;;;;;;;6.23;74.70;99446.78;5263258;27;20130;-78
2022/04/08 06:43:46;;;;;;;0.40;0.40;;;;;;;6.28;74.38;99452.69;5282412;27;20026;-78
2022/04/08 06:46:21;;;;;;;0.30;0.30;;;;;;;6.42;74.63;99449.69;5281222;27;20043;-79
2022/04/08 06:48:52;;;;;;;0.80;0.80;;;;;;;6.43;74.09;99450.50;5268118;27;20035;-79
2022/04/08 06:51:22;;;;;;;0.30;0.30;;;;;;;6.50;73.74;99454.63;5296309;27;20092;-78
2022/04/08 06:53:52;;;;;;;3.30;0.95;;;;;;;6.55;73.82;99452.75;5280525;27;20102;-79
2022/04/08 06:56:29;;;;;;;4.13;1.67;;;;;;;6.49;73.93;99446.88;5297395;27;20031;-78
2022/04/08 06:58:59;;;;;;;0.88;0.85;;;;;;;6.53;74.05;99446.72;5297890;27;20054;-79
2022/04/08 07:01:30;;;;;;;0.70;0.70;;;;;;;6.43;74.75;99446.16;5279041;27;20035;-78
2022/04/08 07:04:00;;;;;;;13.98;2.38;;;;;;;6.41;74.56;99440.16;5305635;27;20023;-79
2022/04/08 07:06:31;;;;;;;0.60;0.60;;;;;;;6.55;73.95;99431.91;5285940;27;20058;-78
2022/04/08 07:09:01;;;;;;;0.40;0.40;;;;;;;6.44;74.19;99426.16;5276180;27;20031;-78
2022/04/08 07:11:32;;;;;;;1.00;1.00;;;;;;;6.48;73.89;99427.78;5247075;27;20035;-78
2022/04/08 07:14:04;;;;;;;4.43;0.47;;;;;;;6.59;73.58;99432.66;5274968;27;20069;-79
2022/04/08 07:16:34;;;;;;;0.60;0.60;;;;;;;6.82;72.59;99426.69;5272166;27;20587;-79
2022/04/08 07:19:05;;;;;;;0.30;0.30;;;;;;;6.80;73.27;99423.31;5248263;27;20027;-78
2022/04/08 07:21:38;;;;;;;0.43;0.43;;;;;;;6.61;73.26;99413.47;5261735;27;20139;-78
2022/04/08 07:24:09;;;;;;;0.40;0.40;;;;;;;6.68;73.24;99423.69;5281309;27;20035;-78
2022/04/08 07:26:40;;;;;;;0.40;0.40;;;;;;;6.71;72.80;99428.81;5272128;27;20047;-78
2022/04/08 07:29:10;;;;;;;0.57;0.57;;;;;;;6.63;73.03;99425.59;5275604;27;20039;-78
2022/04/08 07:31:41;;;;;;;0.70;0.70;;;;;;;6.75;72.25;99427.81;5249206;27;20038;-78
2022/04/08 07:34:11;;;;;;;0.32;0.32;;;;;;;6.63;73.50;99429.03;5258582;27;20036;-78
2022/04/08 07:36:42;;;;;;;0.30;0.30;;;;;;;6.69;73.02;99425.41;5285200;27;20035;-79
2022/04/08 07:39:15;;;;;;;1.08;0.98;;;;;;;6.75;72.68;99430.41;5262073;27;20042;-79
2022/04/08 07:41:46;;;;;;;0.63;0.63;;;;;;;6.86;72.61;99430.94;5277427;27;20303;-79
2022/04/08 07:44:16;;;;;;;0.38;0.38;;;;;;;6.90;72.51;99419.47;5283965;27;20092;-79
2022/04/08 07:46:47;;;;;;;0.40;0.40;;;;;;;6.97;72.70;99424.50;5276933;27;20098;-78
2022/04/08 07:49:17;;;;;;;0.60;0.60;;;;;;;6.86;72.00;99420.50;5282320;27;20403;-79
2022/04/08 07:51:47;;;;;;;0.40;0.40;;;;;;;6.78;72.26;99417.28;5275647;27;20043;-79
2022/04/08 07:54:18;;;;;;;0.30;0.30;;;;;;;6.80;72.29;99423.31;5263630;27;20489;-78
2022/04/08 07:56:48;;;;;;;5.22;2.90;;;;;;;6.82;72.61;99418.88;5281337;27;20587;-78
2022/04/08 07:59:19;;;;;;;0.35;0.35;;;;;;;6.74;72.13;99415.66;5263310;27;20489;-77
2022/04/08 08:01:49;;;;;;;0.30;0.30;;;;;;;6.88;72.15;99418.69;5261904;27;20596;-77
2022/04/08 08:04:21;;;;;;;0.50;0.50;;;;;;;6.82;72.38;99412.81;5280316;27;20130;-77
2022/04/08 08:06:55;;;;;;;0.32;0.32;;;;;;;6.75;71.84;99410.41;5282324;27;20495;-77
2022/04/08 08:09:25;;;;;;;0.50;0.50;;;;;;;6.74;71.35;99413.94;5295447;27;20039;-78
2022/04/08 08:11:56;;;;;;;0.50;0.50;;;;;;;6.79;71.63;99411.16;5260477;27;20033;-77
2022/04/08 08:14:27;;;;;;;0.30;0.30;;;;;;;6.91;71.18;99404.69;5263488;27;20035;-78
2022/04/08 08:16:57;;;;;;;0.50;0.50;;;;;;;6.87;71.56;99401.34;5279574;27;20426;-78
2022/04/08 08:19:31;;;;;;;0.63;0.63;;;;;;;6.99;71.21;99401.81;5274201;27;20047;-78
2022/04/08 08:22:02;;;;;;;1.33;1.33;;;;;;;6.86;71.21;99402.25;5295711;27;20031;-78
2022/04/08 08:24:32;;;;;;;1.75;0.70;;;;;;;6.98;71.40;99400.16;5258620;27;20340;-78
2022/04/08 08:27:04;;;;;;;0.30;0.30;;;;;;;7.03;71.86;99393.00;5257598;27;20380;-78
2022/04/08 08:29:34;;;;;;;1.05;1.05;;;;;;;6.96;70.12;99397.56;5296305;27;20035;-78
2022/04/08 08:32:05;;;;;;;1.48;1.15;;;;;;;7.03;69.67;99408.66;5246201;27;20023;-78
2022/04/08 08:34:35;;;;;;;0.32;0.32;;;;;;;7.08;70.17;99391.97;5280335;27;20110;-79
2022/04/08 08:37:06;;;;;;;0.40;0.40;;;;;;;7.21;70.47;99387.16;5302133;27;20031;-79
2022/04/08 08:39:36;;;;;;;0.70;0.70;;;;;;;7.20;69.00;99384.59;5269516;27;20035;-79
2022/04/08 08:42:09;;;;;;;0.30;0.30;;;;;;;7.15;69.19;99389.97;5302313;27;20035;-79
2022/04/08 08:44:39;;;;;;;3.05;2.80;;;;;;;7.33;69.32;99385.00;5264569;27;20100;-79
2022/04/08 08:47:13;;;;;;;0.95;0.95;;;;;;;7.21;69.20;99384.56;5281285;27;20043;-79
2022/04/08 08:49:49;;;;;;;0.70;0.70;;;;;;;7.34;69.21;99381.50;5263698;27;20076;-79
2022/04/08 08:52:20;;;;;;;1.95;0.98;;;;;;;7.31;69.13;99376.41;5265126;28;20351;-79
2022/04/08 08:54:51;;;;;;;0.32;0.32;;;;;;;7.25;68.94;99375.72;5281496;27;20113;-79
2022/04/08 08:57:22;;;;;;;0.68;0.68;;;;;;;7.40;68.71;99376.94;5258657;27;20316;-79
2022/04/08 09:00:06;;;;;;;0.40;0.40;;;;;;;7.45;68.65;99362.84;5273648;27;20065;-80
2022/04/08 09:02:37;;;;;;;0.50;0.50;;;;;;;7.43;68.72;99364.69;5277755;27;20515;-78
2022/04/08 09:05:14;;;;;;;0.40;0.40;;;;;;;7.48;68.40;99363.59;5276147;27;20047;-79
2022/04/08 09:07:59;;;;;;;0.85;0.85;;;;;;;7.48;67.45;99352.31;5274641;27;20185;-79
2022/04/08 09:10:33;;;;;;;0.40;0.40;;;;;;;7.34;66.98;99348.44;5263124;27;20711;-79
2022/04/08 09:13:07;;;;;;;0.40;0.40;;;;;;;7.36;66.32;99348.38;5278860;27;20035;-79
2022/04/08 09:15:51;;;;;;;1.55;0.60;;;;;;;7.44;67.13;99328.09;5295711;27;20480;-79
2022/04/08 09:18:23;;;;;;;0.30;0.30;;;;;;;7.53;68.37;99329.50;5269237;27;20035;-79
2022/04/08 09:20:59;;;;;;;0.52;0.52;;;;;;;7.60;67.98;99328.38;5274743;27;20041;-78
2022/04/08 09:23:33;;;;;;;0.50;0.50;;;;;;;7.54;67.25;99316.41;5301153;27;20031;-79
2022/04/08 09:26:05;;;;;;;;;;;;;;;7.65;67.78;99313.38;5266578;27;20039;-79
2022/04/08 09:28:37;;;;;;;0.75;0.75;;;;;;;7.64;66.10;99316.06;5258969;27;20413;-79
2022/04/08 09:31:19;;;;;;;0.47;0.47;;;;;;;7.75;66.88;99302.59;5269835;27;20082;-79
2022/04/08 09:33:52;;;;;;;0.40;0.40;;;;;;;7.76;66.51;99312.16;5278505;27;20034;-78
2022/04/08 09:36:30;;;;;;;;;;;;;;;7.87;66.16;99304.72;5263534;27;20047;-79
2022/04/08 09:39:06;;;;;;;0.40;0.40;;;;;;;7.82;66.44;99306.69;5261523;28;20103;-80
2022/04/08 09:41:42;;;;;;;0.50;0.50;;;;;;;7.95;66.78;99297.44;5243809;27;20036;-81
2022/04/08 09:44:24;;;;;;;0.60;0.60;;;;;;;7.98;66.63;99291.25;5294263;27;20031;-79
2022/04/08 09:46:57;;;;;;;0.50;0.50;;;;;;;8.01;65.92;99289.41;5272942;27;20090;-79
2022/04/08 09:49:28;;;;;;;;;;;;;;;7.86;65.17;99301.28;5277129;27;20035;-80
2022/04/08 09:52:01;;;;;;;0.55;0.55;;;;;;;7.97;64.93;99294.78;5265504;28;19938;-80
2022/04/08 09:54:33;;;;;;;6.15;0.95;;;;;;;8.01;65.11;99292.00;5285253;27;20399;-79
2022/04/08 09:57:09;;;;;;;0.30;0.30;;;;;;;7.99;66.37;99295.56;5266589;27;20431;-80
2022/04/08 09:59:45;;;;;;;0.50;0.50;;;;;;;8.06;66.17;99301.41;5259235;27;20542;-79
2022/04/08 10:02:17;;;;;;;0.50;0.50;;;;;;;8.08;66.21;99296.97;5299704;28;20039;-80
2022/04/08 10:04:49;;;;;;;0.35;0.35;;;;;;;8.02;65.35;99300.69;5267629;27;20030;-79
2022/04/08 10:07:20;;;;;;;0.40;0.40;;;;;;;8.16;65.57;99295.75;5300056;27;20043;-79
2022/04/08 10:10:06;;;;;;;0.93;0.93;;;;;;;8.14;65.31;99300.19;5261814;27;20042;-79
2022/04/08 10:13:03;;;;;;;0.45;0.45;;;;;;;8.12;64.58;99296.81;5261486;28;20032;-79
2022/04/08 10:15:44;;;;;;;0.40;0.40;;;;;;;7.93;63.96;99303.66;5276043;27;20567;-79
2022/04/08 10:18:15;;;;;;;0.85;0.82;;;;;;;8.03;64.75;99303.22;5245268;28;20031;-80
2022/04/08 10:20:45;;;;;;;0.50;0.50;;;;;;;8.04;65.47;99307.53;5276754;27;20310;-79
2022/04/08 10:23:18;;;;;;;0.40;0.40;;;;;;;8.17;65.76;99310.50;5280204;28;20479;-80
2022/04/08 10:25:58;;;;;;;1.00;1.00;;;;;;;8.23;64.96;99303.34;5265451;27;20555;-77
2022/04/08 10:28:36;;;;;;;0.32;0.32;;;;;;;8.30;65.84;99304.81;5280380;27;20027;-77
2022/04/08 10:31:23;;;;;;;0.30;0.30;;;;;;;8.22;64.57;99301.66;5253392;28;20088;-79
2022/04/08 10:34:01;;;;;;;0.40;0.40;;;;;;;8.15;63.74;99296.66;5295750;27;20251;-79
2022/04/08 10:36:35;;;;;;;0.40;0.40;;;;;;;8.26;64.27;99287.53;5266365;27;20041;-80
2022/04/08 10:39:17;;;;;;;0.40;0.40;;;;;;;8.24;64.98;99278.91;5276328;28;20023;-79
2022/04/08 10:41:53;;;;;;;0.63;0.63;;;;;;;8.29;63.84;99290.88;5295184;27;20107;-79
2022/04/08 10:44:39;;;;;;;2.28;1.30;;;;;;;8.17;61.94;99283.56;5281991;27;20125;-78
2022/04/08 10:47:16;;;;;;;5.13;1.65;;;;;;;8.01;60.79;99278.94;5271193;28;20398;-79
2022/04/08 10:50:07;;;;;;;0.40;0.40;;;;;;;8.12;60.50;99273.28;5260485;27;20049;-79
2022/04/08 10:52:41;;;;;;;1.30;1.23;;;;;;;8.16;61.67;99253.13;5267498;27;20258;-79
2022/04/08 10:55:12;;;;;;;0.40;0.40;;;;;;;8.00;61.57;99255.47;5285822;27;20043;-79
2022/04/08 10:57:44;;;;;;;1.08;0.93;;;;;;;8.11;62.43;99244.59;5242480;27;20047;-79
2022/04/08 11:00:18;;;;;;;1.10;1.10;;;;;;;8.07;61.64;99236.03;5273831;27;20127;-79
2022/04/08 11:02:53;;;;;;;0.57;0.57;;;;;;;8.13;62.71;99225.34;5303137;27;20081;-79
2022/04/08 11:05:23;;;;;;;0.30;0.30;;;;;;;8.06;60.13;99223.88;5258854;27;20043;-79
2022/04/08 11:07:54;;;;;;;0.55;0.55;;;;;;;8.15;61.84;99210.44;5307525;27;20042;-79
2022/04/08 11:10:28;;;;;;;0.30;0.30;;;;;;;8.11;60.64;99206.28;5277075;27;20031;-80
2022/04/08 11:13:02;;;;;;;0.40;0.40;;;;;;;8.08;59.99;99201.16;5299017;27;20514;-77
2022/04/08 11:15:32;;;;;;;;;;;;;;;8.10;60.20;99194.13;5278666;27;20051;-78
2022/04/08 11:18:06;;;;;;;0.30;0.30;;;;;;;8.18;60.84;99201.66;5281711;27;20448;-78
2022/04/08 11:20:36;;;;;;;;;;;;;;;8.23;60.82;99204.03;5265783;27;20031;-78
2022/04/08 11:23:08;;;;;;;0.55;0.55;;;;;;;8.15;60.69;99199.16;5267844;27;19916;-78
2022/04/08 11:25:39;;;;;;;0.40;0.40;;;;;;;8.36;60.50;99200.03;5267867;27;20033;-78
2022/04/08 11:28:10;;;;;;;0.50;0.50;;;;;;;8.24;60.82;99201.38;5297591;27;20471;-78
2022/04/08 11:30:41;;;;;;;0.30;0.30;;;;;;;8.35;61.32;99193.94;5270752;27;20127;-78
2022/04/08 11:33:19;;;;;;;0.40;0.40;;;;;;;8.40;61.05;99190.28;5280477;27;20110;-78
2022/04/08 11:35:57;;;;;;;0.57;0.57;;;;;;;8.35;60.62;99182.63;5276203;27;20031;-78
2022/04/08 11:38:29;;;;;;;0.68;0.68;;;;;;;8.52;62.14;99178.47;5272838;27;20050;-79
2022/04/08 11:41:01;;;;;;;0.70;0.70;;;;;;;8.53;60.59;99177.56;5280741;27;20035;-77
2022/04/08 11:43:32;;;;;;;0.50;0.50;;;;;;;8.56;60.92;99180.03;5274380;27;20027;-78
2022/04/08 11:46:02;;;;;;;0.30;0.30;;;;;;;8.68;61.10;99176.91;5295728;27;20031;-78
2022/04/08 11:48:38;;;;;;;0.30;0.30;;;;;;;8.79;61.57;99174.66;5269625;27;20040;-78
2022/04/08 11:51:09;;;;;;;0.45;0.45;;;;;;;8.64;59.64;99172.69;5261139;27;20620;-78
2022/04/08 11:53:45;;;;;;;0.47;0.47;;;;;;;8.60;60.21;99168.53;5289697;27;20024;-78
2022/04/08 11:56:25;;;;;;;12.95;2.20;;;;;;;8.66;59.28;99166.50;5275683;27;20033;-78
2022/04/08 11:58:57;;;;;;;4.60;2.05;;;;;;;8.68;58.97;99163.81;5268666;27;20059;-78
2022/04/08 12:01:31;;;;;;;0.50;0.50;;;;;;;8.72;59.23;99159.31;5268345;27;20035;-78
2022/04/08 12:04:03;;;;;;;;;;;;;;;8.70;58.80;99155.91;5272817;27;20019;-78
2022/04/08 12:06:40;;;;;;;0.30;0.30;;;;;;;8.73;58.58;99151.38;5269379;27;19923;-78